This is the latest recevied weather packets stored in our database for station/object JS1SZZ-13. If no packets are shown the sender has not sent any weather packets the latest 10 day(s).
| Time | Temp. | Humidity | Pressure | Rain* | Wind** | Luminosity | Snow |
|---|---|---|---|---|---|---|---|
| 1787573189 | 22.22° C | 93% | 1014.4 hPa | 0 mm | - | - | - |
| 1787572499 | 22.22° C | 93% | 1014.4 hPa | 0 mm | - | - | - |
| 1787571601 | 22.78° C | 92% | 1014.3 hPa | 0 mm | - | - | - |
| 1787570699 | 22.78° C | 93% | 1014.5 hPa | 0 mm | - | - | - |
| 1787569801 | 22.78° C | 92% | 1014.6 hPa | 0 mm | - | - | - |
| 1787568900 | 22.78° C | 92% | 1014.4 hPa | 0 mm | - | - | - |
| 1787567999 | 22.78° C | 92% | 1014.4 hPa | 0 mm | - | - | - |
| 1787567101 | 22.78° C | 92% | 1014.1 hPa | 0 mm | - | - | - |
| 1787566201 | 22.78° C | 92% | 1014 hPa | 0 mm | - | - | - |
| 1787565300 | 22.78° C | 92% | 1013.9 hPa | 0.25 mm | - | - | - |
| 1787564399 | 23.33° C | 91% | 1013.7 hPa | 2.79 mm | - | - | - |
| 1787563501 | 23.33° C | 91% | 1013.6 hPa | 5.84 mm | - | - | - |
| 1787562600 | 23.33° C | 90% | 1013.5 hPa | 5.84 mm | - | - | - |
| 1787561700 | 23.89° C | 85% | 1013.4 hPa | 5.59 mm | - | - | - |
| 1787560800 | 27.22° C | 80% | 1013 hPa | 2.54 mm | - | - | - |
| 1787559901 | 29.44° C | 66% | 1013 hPa | 0 mm | - | - | - |
| 1787559000 | 29.44° C | 66% | 1012.7 hPa | 0 mm | - | - | - |
| 1787558099 | 29.44° C | 63% | 1012.3 hPa | 0 mm | - | - | - |
| 1787557201 | 30° C | 58% | 1012.4 hPa | 0 mm | - | - | - |
| 1787556300 | 31.11° C | 55% | 1012.3 hPa | 0 mm | - | - | - |
| 1787555400 | 32.22° C | 53% | 1012.1 hPa | 0 mm | - | - | - |
| 1787554499 | 32.22° C | 51% | 1011.8 hPa | 0 mm | - | - | - |
| 1787553600 | 32.22° C | 51% | 1011.9 hPa | 0 mm | - | - | - |
| 1787552700 | 32.78° C | 50% | 1011.8 hPa | 0 mm | - | - | - |
| 1787551799 | 32.22° C | 51% | 1011.9 hPa | 0 mm | - | - | - |
* Rain latest hour (hover to see other rain measurements)
** Current wind speed in m/s (hover to see current wind gust speed)